Terminal Aerodrome Forecast
Issued by NWS Paducah, KY

Home | Current Version | Previous Version | Text Only | Print | Product List | Glossary On
Versions: 1 2 3 4 5 6 7 8 9 10 11 12 13 14 15 16 17 18
000
FTUS43 KPAH 201120
TAFEVV
TAF
KEVV 201120Z 2012/2112 22007KT P6SM SCT050 BKN150
     FM201400 23011G21KT P6SM SCT050 BKN100
     FM202100 24008KT P6SM VCTS BKN050CB PROB30 2021/2024 -TSRA
     FM210100 25005KT P6SM -SHRA BKN045
     FM210500 33007KT P6SM VCSH BKN025 PROB30 2105/2110 -SHRA=

USA.gov is the U.S. government's official web portal to all federal, state and local government web resources and services.